sensor_id;sensor_type;location;lat;lon;timestamp;P1;durP1;ratioP1;P2;durP2;ratioP2
40314;SDS011;26021;45.640;11.302;2023-03-24T00:00:44;78.78;;;58.17;;
40314;SDS011;26021;45.640;11.302;2023-03-24T00:03:10;83.72;;;59.42;;
40314;SDS011;26021;45.640;11.302;2023-03-24T00:05:35;79.35;;;58.38;;
40314;SDS011;26021;45.640;11.302;2023-03-24T00:08:02;80.70;;;58.35;;
40314;SDS011;26021;45.640;11.302;2023-03-24T00:10:29;82.85;;;57.83;;
40314;SDS011;26021;45.640;11.302;2023-03-24T00:12:58;79.38;;;55.63;;
40314;SDS011;26021;45.640;11.302;2023-03-24T00:15:24;78.53;;;57.13;;
40314;SDS011;26021;45.640;11.302;2023-03-24T00:17:50;79.97;;;56.08;;
40314;SDS011;26021;45.640;11.302;2023-03-24T00:20:17;78.85;;;56.30;;
40314;SDS011;26021;45.640;11.302;2023-03-24T00:22:45;81.68;;;55.58;;
40314;SDS011;26021;45.640;11.302;2023-03-24T00:25:16;77.03;;;54.92;;
40314;SDS011;26021;45.640;11.302;2023-03-24T00:27:43;73.53;;;51.30;;
40314;SDS011;26021;45.640;11.302;2023-03-24T00:30:10;80.20;;;54.53;;
40314;SDS011;26021;45.640;11.302;2023-03-24T00:32:37;75.60;;;54.45;;
40314;SDS011;26021;45.640;11.302;2023-03-24T00:35:03;75.65;;;55.63;;
40314;SDS011;26021;45.640;11.302;2023-03-24T00:37:30;87.88;;;58.15;;
40314;SDS011;26021;45.640;11.302;2023-03-24T00:39:56;83.15;;;57.25;;
40314;SDS011;26021;45.640;11.302;2023-03-24T00:42:21;86.85;;;57.67;;
40314;SDS011;26021;45.640;11.302;2023-03-24T00:44:48;80.72;;;55.63;;
40314;SDS011;26021;45.640;11.302;2023-03-24T00:47:14;84.03;;;57.35;;
40314;SDS011;26021;45.640;11.302;2023-03-24T00:49:42;78.38;;;53.08;;
40314;SDS011;26021;45.640;11.302;2023-03-24T00:52:12;73.43;;;53.72;;
40314;SDS011;26021;45.640;11.302;2023-03-24T00:54:45;78.55;;;53.92;;
40314;SDS011;26021;45.640;11.302;2023-03-24T00:57:12;76.38;;;53.03;;
40314;SDS011;26021;45.640;11.302;2023-03-24T00:59:39;80.90;;;54.75;;
40314;SDS011;26021;45.640;11.302;2023-03-24T01:02:14;76.65;;;54.35;;
40314;SDS011;26021;45.640;11.302;2023-03-24T01:04:43;75.75;;;53.70;;
40314;SDS011;26021;45.640;11.302;2023-03-24T01:07:11;77.25;;;54.28;;
40314;SDS011;26021;45.640;11.302;2023-03-24T01:09:42;73.82;;;51.70;;
40314;SDS011;26021;45.640;11.302;2023-03-24T01:12:07;73.75;;;51.85;;
40314;SDS011;26021;45.640;11.302;2023-03-24T01:14:33;76.57;;;53.65;;
40314;SDS011;26021;45.640;11.302;2023-03-24T01:16:58;80.53;;;54.67;;
40314;SDS011;26021;45.640;11.302;2023-03-24T01:19:25;76.40;;;53.80;;
40314;SDS011;26021;45.640;11.302;2023-03-24T01:21:51;76.47;;;55.20;;
40314;SDS011;26021;45.640;11.302;2023-03-24T01:24:18;80.32;;;56.92;;
40314;SDS011;26021;45.640;11.302;2023-03-24T01:26:50;83.80;;;58.17;;
40314;SDS011;26021;45.640;11.302;2023-03-24T01:29:15;79.05;;;56.03;;
40314;SDS011;26021;45.640;11.302;2023-03-24T01:31:41;78.45;;;56.35;;
40314;SDS011;26021;45.640;11.302;2023-03-24T01:34:06;80.88;;;57.33;;
40314;SDS011;26021;45.640;11.302;2023-03-24T01:36:32;82.55;;;58.83;;
40314;SDS011;26021;45.640;11.302;2023-03-24T01:38:57;86.22;;;62.03;;
40314;SDS011;26021;45.640;11.302;2023-03-24T01:41:26;87.60;;;60.53;;
40314;SDS011;26021;45.640;11.302;2023-03-24T01:43:58;84.72;;;57.80;;
40314;SDS011;26021;45.640;11.302;2023-03-24T01:46:24;79.22;;;56.30;;
40314;SDS011;26021;45.640;11.302;2023-03-24T01:51:35;86.32;;;58.85;;
40314;SDS011;26021;45.640;11.302;2023-03-24T01:54:14;86.50;;;60.22;;
40314;SDS011;26021;45.640;11.302;2023-03-24T01:57:00;90.03;;;59.78;;
40314;SDS011;26021;45.640;11.302;2023-03-24T01:59:29;88.78;;;62.15;;
40314;SDS011;26021;45.640;11.302;2023-03-24T02:01:58;92.13;;;60.20;;
40314;SDS011;26021;45.640;11.302;2023-03-24T02:04:30;88.70;;;61.28;;
40314;SDS011;26021;45.640;11.302;2023-03-24T02:07:15;88.25;;;60.40;;
40314;SDS011;26021;45.640;11.302;2023-03-24T02:09:47;84.30;;;59.40;;
40314;SDS011;26021;45.640;11.302;2023-03-24T02:12:13;89.07;;;62.58;;
40314;SDS011;26021;45.640;11.302;2023-03-24T02:14:39;90.22;;;62.33;;
40314;SDS011;26021;45.640;11.302;2023-03-24T02:44:17;93.38;;;63.00;;
40314;SDS011;26021;45.640;11.302;2023-03-24T02:46:51;92.75;;;62.10;;
40314;SDS011;26021;45.640;11.302;2023-03-24T03:00:13;85.03;;;57.65;;
40314;SDS011;26021;45.640;11.302;2023-03-24T03:05:14;84.50;;;61.30;;
40314;SDS011;26021;45.640;11.302;2023-03-24T03:07:48;85.38;;;57.63;;
40314;SDS011;26021;45.640;11.302;2023-03-24T03:10:20;85.07;;;60.13;;
40314;SDS011;26021;45.640;11.302;2023-03-24T03:12:51;82.20;;;57.85;;
40314;SDS011;26021;45.640;11.302;2023-03-24T03:15:21;79.80;;;55.97;;
40314;SDS011;26021;45.640;11.302;2023-03-24T03:17:51;86.70;;;58.50;;
40314;SDS011;26021;45.640;11.302;2023-03-24T03:20:23;83.80;;;56.23;;
40314;SDS011;26021;45.640;11.302;2023-03-24T03:23:06;84.22;;;57.85;;
40314;SDS011;26021;45.640;11.302;2023-03-24T03:25:36;85.18;;;60.15;;
40314;SDS011;26021;45.640;11.302;2023-03-24T03:28:16;82.28;;;55.50;;
40314;SDS011;26021;45.640;11.302;2023-03-24T03:30:47;83.95;;;56.03;;
40314;SDS011;26021;45.640;11.302;2023-03-24T03:33:17;77.65;;;54.42;;
40314;SDS011;26021;45.640;11.302;2023-03-24T03:36:03;85.28;;;58.90;;
40314;SDS011;26021;45.640;11.302;2023-03-24T03:38:34;80.20;;;57.15;;
40314;SDS011;26021;45.640;11.302;2023-03-24T03:41:07;83.57;;;56.63;;
40314;SDS011;26021;45.640;11.302;2023-03-24T03:43:33;84.13;;;57.17;;
40314;SDS011;26021;45.640;11.302;2023-03-24T03:46:00;84.82;;;56.53;;
40314;SDS011;26021;45.640;11.302;2023-03-24T03:48:27;81.85;;;56.35;;
40314;SDS011;26021;45.640;11.302;2023-03-24T03:50:53;81.00;;;55.38;;
40314;SDS011;26021;45.640;11.302;2023-03-24T03:53:22;78.43;;;55.30;;
40314;SDS011;26021;45.640;11.302;2023-03-24T03:55:52;82.97;;;56.75;;
40314;SDS011;26021;45.640;11.302;2023-03-24T03:58:20;82.00;;;57.53;;
40314;SDS011;26021;45.640;11.302;2023-03-24T04:00:47;82.50;;;57.72;;
40314;SDS011;26021;45.640;11.302;2023-03-24T04:08:45;87.72;;;60.28;;
40314;SDS011;26021;45.640;11.302;2023-03-24T04:19:48;88.35;;;60.05;;
40314;SDS011;26021;45.640;11.302;2023-03-24T04:30:45;90.93;;;61.28;;
40314;SDS011;26021;45.640;11.302;2023-03-24T04:33:19;83.40;;;57.17;;
40314;SDS011;26021;45.640;11.302;2023-03-24T04:35:59;86.05;;;58.78;;
40314;SDS011;26021;45.640;11.302;2023-03-24T04:38:30;85.07;;;59.17;;
40314;SDS011;26021;45.640;11.302;2023-03-24T04:41:00;85.82;;;59.28;;
40314;SDS011;26021;45.640;11.302;2023-03-24T04:43:30;84.32;;;55.97;;
40314;SDS011;26021;45.640;11.302;2023-03-24T04:46:00;87.63;;;58.83;;
40314;SDS011;26021;45.640;11.302;2023-03-24T04:48:28;83.88;;;57.90;;
40314;SDS011;26021;45.640;11.302;2023-03-24T04:53:25;86.15;;;56.47;;
40314;SDS011;26021;45.640;11.302;2023-03-24T04:58:22;87.13;;;59.58;;
40314;SDS011;26021;45.640;11.302;2023-03-24T05:00:48;88.45;;;58.58;;
40314;SDS011;26021;45.640;11.302;2023-03-24T05:03:15;92.32;;;59.67;;
40314;SDS011;26021;45.640;11.302;2023-03-24T05:05:42;89.85;;;61.25;;
40314;SDS011;26021;45.640;11.302;2023-03-24T05:08:09;93.15;;;64.78;;
40314;SDS011;26021;45.640;11.302;2023-03-24T05:10:35;88.63;;;57.25;;
40314;SDS011;26021;45.640;11.302;2023-03-24T05:13:02;92.30;;;60.72;;
40314;SDS011;26021;45.640;11.302;2023-03-24T05:15:28;91.88;;;60.78;;
40314;SDS011;26021;45.640;11.302;2023-03-24T05:17:54;89.93;;;59.05;;
40314;SDS011;26021;45.640;11.302;2023-03-24T05:20:20;88.70;;;57.42;;
40314;SDS011;26021;45.640;11.302;2023-03-24T05:22:47;87.45;;;59.38;;
40314;SDS011;26021;45.640;11.302;2023-03-24T05:25:13;88.80;;;57.58;;
40314;SDS011;26021;45.640;11.302;2023-03-24T05:27:40;91.72;;;59.60;;
40314;SDS011;26021;45.640;11.302;2023-03-24T05:30:06;90.00;;;58.47;;
40314;SDS011;26021;45.640;11.302;2023-03-24T05:32:32;89.90;;;59.75;;
40314;SDS011;26021;45.640;11.302;2023-03-24T05:34:58;92.25;;;59.97;;
40314;SDS011;26021;45.640;11.302;2023-03-24T05:37:24;85.57;;;59.40;;
40314;SDS011;26021;45.640;11.302;2023-03-24T05:39:49;86.22;;;57.22;;
40314;SDS011;26021;45.640;11.302;2023-03-24T05:42:15;86.63;;;59.13;;
40314;SDS011;26021;45.640;11.302;2023-03-24T05:44:41;84.25;;;56.55;;
40314;SDS011;26021;45.640;11.302;2023-03-24T05:47:07;85.03;;;58.42;;
40314;SDS011;26021;45.640;11.302;2023-03-24T05:49:32;83.60;;;57.15;;
40314;SDS011;26021;45.640;11.302;2023-03-24T05:51:58;85.05;;;59.40;;
40314;SDS011;26021;45.640;11.302;2023-03-24T05:54:24;88.15;;;59.33;;
40314;SDS011;26021;45.640;11.302;2023-03-24T05:56:49;88.75;;;60.70;;
40314;SDS011;26021;45.640;11.302;2023-03-24T05:59:15;90.43;;;62.05;;
40314;SDS011;26021;45.640;11.302;2023-03-24T06:01:41;89.72;;;61.85;;
40314;SDS011;26021;45.640;11.302;2023-03-24T06:04:07;89.90;;;61.70;;
40314;SDS011;26021;45.640;11.302;2023-03-24T06:06:33;94.15;;;60.78;;
40314;SDS011;26021;45.640;11.302;2023-03-24T06:08:58;81.72;;;57.15;;
40314;SDS011;26021;45.640;11.302;2023-03-24T06:11:27;87.50;;;59.33;;
40314;SDS011;26021;45.640;11.302;2023-03-24T06:13:53;80.97;;;56.67;;
40314;SDS011;26021;45.640;11.302;2023-03-24T06:16:24;80.50;;;55.63;;
40314;SDS011;26021;45.640;11.302;2023-03-24T06:18:52;84.50;;;56.72;;
40314;SDS011;26021;45.640;11.302;2023-03-24T06:21:18;86.95;;;60.70;;
40314;SDS011;26021;45.640;11.302;2023-03-24T06:23:44;86.20;;;58.83;;
40314;SDS011;26021;45.640;11.302;2023-03-24T06:26:10;84.50;;;58.78;;
40314;SDS011;26021;45.640;11.302;2023-03-24T06:28:38;89.13;;;60.33;;
40314;SDS011;26021;45.640;11.302;2023-03-24T06:31:06;85.05;;;58.33;;
40314;SDS011;26021;45.640;11.302;2023-03-24T06:33:38;81.60;;;57.53;;
40314;SDS011;26021;45.640;11.302;2023-03-24T06:36:04;86.53;;;58.05;;
40314;SDS011;26021;45.640;11.302;2023-03-24T06:38:30;83.78;;;57.80;;
40314;SDS011;26021;45.640;11.302;2023-03-24T06:41:02;82.65;;;57.42;;
40314;SDS011;26021;45.640;11.302;2023-03-24T06:43:30;80.80;;;57.45;;
40314;SDS011;26021;45.640;11.302;2023-03-24T06:45:56;78.95;;;57.85;;
40314;SDS011;26021;45.640;11.302;2023-03-24T06:48:23;81.70;;;58.95;;
40314;SDS011;26021;45.640;11.302;2023-03-24T06:50:50;83.38;;;59.58;;
40314;SDS011;26021;45.640;11.302;2023-03-24T06:53:16;81.13;;;57.78;;
40314;SDS011;26021;45.640;11.302;2023-03-24T06:55:42;86.63;;;59.83;;
40314;SDS011;26021;45.640;11.302;2023-03-24T06:58:07;87.97;;;60.85;;
40314;SDS011;26021;45.640;11.302;2023-03-24T07:00:32;80.65;;;56.78;;
40314;SDS011;26021;45.640;11.302;2023-03-24T07:02:58;87.22;;;60.88;;
40314;SDS011;26021;45.640;11.302;2023-03-24T07:05:26;83.00;;;59.85;;
40314;SDS011;26021;45.640;11.302;2023-03-24T07:07:52;84.57;;;59.92;;
40314;SDS011;26021;45.640;11.302;2023-03-24T07:10:17;87.82;;;59.33;;
40314;SDS011;26021;45.640;11.302;2023-03-24T07:12:43;83.38;;;58.70;;
40314;SDS011;26021;45.640;11.302;2023-03-24T07:15:09;85.63;;;59.78;;
40314;SDS011;26021;45.640;11.302;2023-03-24T07:17:35;85.18;;;59.78;;
40314;SDS011;26021;45.640;11.302;2023-03-24T07:20:01;87.07;;;57.67;;
40314;SDS011;26021;45.640;11.302;2023-03-24T07:22:29;98.25;;;63.67;;
40314;SDS011;26021;45.640;11.302;2023-03-24T07:24:54;89.20;;;60.90;;
40314;SDS011;26021;45.640;11.302;2023-03-24T07:27:22;83.05;;;56.85;;
40314;SDS011;26021;45.640;11.302;2023-03-24T07:29:47;87.30;;;61.85;;
40314;SDS011;26021;45.640;11.302;2023-03-24T07:32:13;85.88;;;59.22;;
40314;SDS011;26021;45.640;11.302;2023-03-24T07:34:38;87.25;;;59.90;;
40314;SDS011;26021;45.640;11.302;2023-03-24T07:37:04;86.60;;;59.95;;
40314;SDS011;26021;45.640;11.302;2023-03-24T07:39:29;83.53;;;59.53;;
40314;SDS011;26021;45.640;11.302;2023-03-24T07:41:55;84.18;;;58.15;;
40314;SDS011;26021;45.640;11.302;2023-03-24T07:44:21;89.60;;;61.33;;
40314;SDS011;26021;45.640;11.302;2023-03-24T07:46:46;90.15;;;60.95;;
40314;SDS011;26021;45.640;11.302;2023-03-24T07:49:12;80.88;;;58.67;;
40314;SDS011;26021;45.640;11.302;2023-03-24T07:51:38;84.57;;;60.28;;
40314;SDS011;26021;45.640;11.302;2023-03-24T07:54:04;83.50;;;58.33;;
40314;SDS011;26021;45.640;11.302;2023-03-24T07:56:30;82.53;;;58.25;;
40314;SDS011;26021;45.640;11.302;2023-03-24T07:58:56;83.68;;;59.08;;
40314;SDS011;26021;45.640;11.302;2023-03-24T08:01:21;85.07;;;60.33;;
40314;SDS011;26021;45.640;11.302;2023-03-24T08:03:47;83.88;;;59.67;;
40314;SDS011;26021;45.640;11.302;2023-03-24T08:06:13;80.93;;;58.30;;
40314;SDS011;26021;45.640;11.302;2023-03-24T08:08:38;83.72;;;59.35;;
40314;SDS011;26021;45.640;11.302;2023-03-24T08:11:04;79.28;;;57.58;;
40314;SDS011;26021;45.640;11.302;2023-03-24T08:13:48;83.68;;;60.95;;
40314;SDS011;26021;45.640;11.302;2023-03-24T08:16:13;81.72;;;59.08;;
40314;SDS011;26021;45.640;11.302;2023-03-24T08:18:39;84.47;;;59.40;;
40314;SDS011;26021;45.640;11.302;2023-03-24T08:21:04;84.10;;;61.05;;
40314;SDS011;26021;45.640;11.302;2023-03-24T08:23:30;89.82;;;61.15;;
40314;SDS011;26021;45.640;11.302;2023-03-24T08:25:56;87.32;;;59.58;;
40314;SDS011;26021;45.640;11.302;2023-03-24T08:28:21;85.13;;;59.83;;
40314;SDS011;26021;45.640;11.302;2023-03-24T08:30:47;86.43;;;60.05;;
40314;SDS011;26021;45.640;11.302;2023-03-24T08:33:13;81.93;;;60.30;;
40314;SDS011;26021;45.640;11.302;2023-03-24T08:35:39;86.15;;;63.95;;
40314;SDS011;26021;45.640;11.302;2023-03-24T08:38:06;89.63;;;62.42;;
40314;SDS011;26021;45.640;11.302;2023-03-24T08:40:33;87.63;;;63.70;;
40314;SDS011;26021;45.640;11.302;2023-03-24T08:43:00;93.30;;;65.25;;
40314;SDS011;26021;45.640;11.302;2023-03-24T08:45:28;85.40;;;60.85;;
40314;SDS011;26021;45.640;11.302;2023-03-24T08:47:56;85.50;;;62.40;;
40314;SDS011;26021;45.640;11.302;2023-03-24T08:50:24;88.90;;;63.10;;
40314;SDS011;26021;45.640;11.302;2023-03-24T08:52:52;93.53;;;64.68;;
40314;SDS011;26021;45.640;11.302;2023-03-24T08:55:19;91.85;;;64.20;;
40314;SDS011;26021;45.640;11.302;2023-03-24T08:57:46;84.05;;;61.00;;
40314;SDS011;26021;45.640;11.302;2023-03-24T09:00:12;89.93;;;62.53;;
40314;SDS011;26021;45.640;11.302;2023-03-24T09:02:39;85.72;;;63.10;;
40314;SDS011;26021;45.640;11.302;2023-03-24T09:05:06;85.38;;;60.45;;
40314;SDS011;26021;45.640;11.302;2023-03-24T09:07:32;88.45;;;62.33;;
40314;SDS011;26021;45.640;11.302;2023-03-24T09:09:57;90.05;;;64.65;;
40314;SDS011;26021;45.640;11.302;2023-03-24T09:12:22;85.75;;;63.38;;
40314;SDS011;26021;45.640;11.302;2023-03-24T09:14:48;87.03;;;63.75;;
40314;SDS011;26021;45.640;11.302;2023-03-24T09:17:15;86.75;;;63.63;;
40314;SDS011;26021;45.640;11.302;2023-03-24T09:19:41;88.47;;;64.95;;
40314;SDS011;26021;45.640;11.302;2023-03-24T09:22:07;87.03;;;61.22;;
40314;SDS011;26021;45.640;11.302;2023-03-24T09:24:33;86.32;;;62.05;;
40314;SDS011;26021;45.640;11.302;2023-03-24T09:26:58;86.43;;;63.85;;
40314;SDS011;26021;45.640;11.302;2023-03-24T09:29:24;91.60;;;61.92;;
40314;SDS011;26021;45.640;11.302;2023-03-24T09:31:49;82.57;;;60.97;;
40314;SDS011;26021;45.640;11.302;2023-03-24T09:34:15;84.40;;;60.78;;
40314;SDS011;26021;45.640;11.302;2023-03-24T09:36:40;82.03;;;60.35;;
40314;SDS011;26021;45.640;11.302;2023-03-24T09:39:05;81.22;;;59.83;;
40314;SDS011;26021;45.640;11.302;2023-03-24T09:41:31;78.25;;;57.45;;
40314;SDS011;26021;45.640;11.302;2023-03-24T09:44:43;78.90;;;58.13;;
40314;SDS011;26021;45.640;11.302;2023-03-24T09:49:42;76.10;;;56.42;;
40314;SDS011;26021;45.640;11.302;2023-03-24T09:52:09;80.65;;;58.35;;
40314;SDS011;26021;45.640;11.302;2023-03-24T09:57:21;78.30;;;56.60;;
40314;SDS011;26021;45.640;11.302;2023-03-24T10:00:14;80.03;;;57.97;;
40314;SDS011;26021;45.640;11.302;2023-03-24T10:02:45;75.50;;;54.92;;
40314;SDS011;26021;45.640;11.302;2023-03-24T10:05:21;78.60;;;55.45;;
40314;SDS011;26021;45.640;11.302;2023-03-24T10:07:59;65.97;;;51.10;;
40314;SDS011;26021;45.640;11.302;2023-03-24T10:13:11;71.22;;;52.47;;
40314;SDS011;26021;45.640;11.302;2023-03-24T10:15:50;75.38;;;53.70;;
40314;SDS011;26021;45.640;11.302;2023-03-24T10:21:21;81.10;;;55.85;;
40314;SDS011;26021;45.640;11.302;2023-03-24T10:23:59;78.78;;;55.65;;
40314;SDS011;26021;45.640;11.302;2023-03-24T10:26:49;72.75;;;54.25;;
40314;SDS011;26021;45.640;11.302;2023-03-24T10:32:14;74.10;;;53.97;;
40314;SDS011;26021;45.640;11.302;2023-03-24T10:34:40;73.00;;;53.88;;
40314;SDS011;26021;45.640;11.302;2023-03-24T10:37:09;66.22;;;50.67;;
40314;SDS011;26021;45.640;11.302;2023-03-24T10:39:35;68.10;;;50.33;;
40314;SDS011;26021;45.640;11.302;2023-03-24T10:42:02;64.95;;;47.97;;
40314;SDS011;26021;45.640;11.302;2023-03-24T10:44:28;62.17;;;48.45;;
40314;SDS011;26021;45.640;11.302;2023-03-24T10:46:55;65.60;;;51.00;;
40314;SDS011;26021;45.640;11.302;2023-03-24T10:49:23;61.28;;;47.65;;
40314;SDS011;26021;45.640;11.302;2023-03-24T10:51:49;61.83;;;46.75;;
40314;SDS011;26021;45.640;11.302;2023-03-24T10:57:05;65.65;;;47.67;;
40314;SDS011;26021;45.640;11.302;2023-03-24T11:05:01;62.08;;;48.80;;
40314;SDS011;26021;45.640;11.302;2023-03-24T11:07:39;65.13;;;47.90;;
40314;SDS011;26021;45.640;11.302;2023-03-24T11:12:36;61.42;;;47.25;;
40314;SDS011;26021;45.640;11.302;2023-03-24T11:15:17;63.53;;;47.75;;
40314;SDS011;26021;45.640;11.302;2023-03-24T11:17:43;66.50;;;51.15;;
40314;SDS011;26021;45.640;11.302;2023-03-24T11:20:19;67.18;;;50.03;;
40314;SDS011;26021;45.640;11.302;2023-03-24T11:22:55;67.28;;;49.88;;
40314;SDS011;26021;45.640;11.302;2023-03-24T11:25:24;61.45;;;48.55;;
40314;SDS011;26021;45.640;11.302;2023-03-24T11:27:58;64.75;;;49.50;;
40314;SDS011;26021;45.640;11.302;2023-03-24T11:30:32;66.13;;;50.10;;
40314;SDS011;26021;45.640;11.302;2023-03-24T11:33:01;61.58;;;49.42;;
40314;SDS011;26021;45.640;11.302;2023-03-24T11:35:28;71.43;;;51.72;;
40314;SDS011;26021;45.640;11.302;2023-03-24T11:37:55;63.03;;;50.75;;
40314;SDS011;26021;45.640;11.302;2023-03-24T11:40:21;67.05;;;50.75;;
40314;SDS011;26021;45.640;11.302;2023-03-24T11:43:10;68.43;;;52.45;;
40314;SDS011;26021;45.640;11.302;2023-03-24T11:45:44;70.47;;;54.22;;
40314;SDS011;26021;45.640;11.302;2023-03-24T11:48:24;70.20;;;54.08;;
40314;SDS011;26021;45.640;11.302;2023-03-24T11:50:54;73.78;;;56.55;;
40314;SDS011;26021;45.640;11.302;2023-03-24T11:53:27;73.28;;;56.05;;
40314;SDS011;26021;45.640;11.302;2023-03-24T11:56:15;77.03;;;55.67;;
40314;SDS011;26021;45.640;11.302;2023-03-24T11:59:00;75.07;;;56.70;;
40314;SDS011;26021;45.640;11.302;2023-03-24T12:01:48;79.75;;;59.10;;
40314;SDS011;26021;45.640;11.302;2023-03-24T12:17:48;75.50;;;58.60;;
40314;SDS011;26021;45.640;11.302;2023-03-24T12:36:58;67.97;;;53.88;;
40314;SDS011;26021;45.640;11.302;2023-03-24T12:39:33;66.88;;;53.00;;
40314;SDS011;26021;45.640;11.302;2023-03-24T12:42:10;65.50;;;50.83;;
40314;SDS011;26021;45.640;11.302;2023-03-24T12:55:34;62.03;;;48.67;;
40314;SDS011;26021;45.640;11.302;2023-03-24T13:01:03;56.17;;;45.08;;
40314;SDS011;26021;45.640;11.302;2023-03-24T13:03:50;54.33;;;45.00;;
40314;SDS011;26021;45.640;11.302;2023-03-24T13:14:11;52.63;;;41.03;;
40314;SDS011;26021;45.640;11.302;2023-03-24T13:16:42;52.53;;;40.72;;
40314;SDS011;26021;45.640;11.302;2023-03-24T13:19:18;48.72;;;39.42;;
40314;SDS011;26021;45.640;11.302;2023-03-24T13:21:47;47.50;;;38.55;;
40314;SDS011;26021;45.640;11.302;2023-03-24T13:24:15;45.25;;;37.05;;
40314;SDS011;26021;45.640;11.302;2023-03-24T13:31:55;39.38;;;30.83;;
40314;SDS011;26021;45.640;11.302;2023-03-24T13:34:37;33.70;;;27.70;;
40314;SDS011;26021;45.640;11.302;2023-03-24T13:39:54;29.83;;;23.67;;
40314;SDS011;26021;45.640;11.302;2023-03-24T13:44:50;12.13;;;9.48;;
40314;SDS011;26021;45.640;11.302;2023-03-24T13:47:15;14.48;;;7.18;;
40314;SDS011;26021;45.640;11.302;2023-03-24T13:52:27;7.50;;;5.07;;
40314;SDS011;26021;45.640;11.302;2023-03-24T13:54:57;12.50;;;5.32;;
40314;SDS011;26021;45.640;11.302;2023-03-24T13:57:24;12.57;;;7.00;;
40314;SDS011;26021;45.640;11.302;2023-03-24T14:02:55;8.18;;;5.20;;
40314;SDS011;26021;45.640;11.302;2023-03-24T14:14:32;9.35;;;4.55;;
40314;SDS011;26021;45.640;11.302;2023-03-24T14:19:35;10.13;;;5.22;;
40314;SDS011;26021;45.640;11.302;2023-03-24T14:22:32;12.32;;;4.72;;
40314;SDS011;26021;45.640;11.302;2023-03-24T14:25:02;13.05;;;4.60;;
40314;SDS011;26021;45.640;11.302;2023-03-24T14:27:54;5.57;;;4.10;;
40314;SDS011;26021;45.640;11.302;2023-03-24T14:30:34;5.93;;;4.10;;
40314;SDS011;26021;45.640;11.302;2023-03-24T14:33:04;5.25;;;4.28;;
40314;SDS011;26021;45.640;11.302;2023-03-24T14:35:45;4.68;;;4.03;;
40314;SDS011;26021;45.640;11.302;2023-03-24T14:40:38;5.15;;;4.65;;
40314;SDS011;26021;45.640;11.302;2023-03-24T14:46:03;6.82;;;4.20;;
40314;SDS011;26021;45.640;11.302;2023-03-24T14:48:31;5.65;;;4.10;;
40314;SDS011;26021;45.640;11.302;2023-03-24T14:51:06;9.05;;;4.22;;
40314;SDS011;26021;45.640;11.302;2023-03-24T14:53:44;6.22;;;3.63;;
40314;SDS011;26021;45.640;11.302;2023-03-24T14:56:11;6.20;;;4.30;;
40314;SDS011;26021;45.640;11.302;2023-03-24T14:58:40;8.10;;;4.88;;
40314;SDS011;26021;45.640;11.302;2023-03-24T15:01:08;4.60;;;3.60;;
40314;SDS011;26021;45.640;11.302;2023-03-24T15:06:17;7.07;;;3.25;;
40314;SDS011;26021;45.640;11.302;2023-03-24T15:08:50;7.47;;;4.07;;
40314;SDS011;26021;45.640;11.302;2023-03-24T15:11:24;9.25;;;3.75;;
40314;SDS011;26021;45.640;11.302;2023-03-24T15:13:56;3.90;;;3.20;;
40314;SDS011;26021;45.640;11.302;2023-03-24T15:16:27;8.27;;;3.10;;
40314;SDS011;26021;45.640;11.302;2023-03-24T15:26:45;5.28;;;3.58;;
40314;SDS011;26021;45.640;11.302;2023-03-24T15:29:11;5.28;;;3.45;;
40314;SDS011;26021;45.640;11.302;2023-03-24T15:31:37;8.18;;;3.65;;
40314;SDS011;26021;45.640;11.302;2023-03-24T15:34:06;4.63;;;3.85;;
40314;SDS011;26021;45.640;11.302;2023-03-24T15:36:33;6.38;;;3.50;;
40314;SDS011;26021;45.640;11.302;2023-03-24T15:39:17;3.47;;;3.17;;
40314;SDS011;26021;45.640;11.302;2023-03-24T15:41:44;6.72;;;3.15;;
40314;SDS011;26021;45.640;11.302;2023-03-24T15:44:14;9.00;;;3.58;;
40314;SDS011;26021;45.640;11.302;2023-03-24T15:46:43;5.53;;;2.78;;
40314;SDS011;26021;45.640;11.302;2023-03-24T15:49:15;6.03;;;3.10;;
40314;SDS011;26021;45.640;11.302;2023-03-24T15:52:34;3.45;;;3.00;;
40314;SDS011;26021;45.640;11.302;2023-03-24T15:54:53;5.53;;;3.17;;
40314;SDS011;26021;45.640;11.302;2023-03-24T15:57:22;5.30;;;3.35;;
40314;SDS011;26021;45.640;11.302;2023-03-24T16:04:47;6.72;;;4.35;;
40314;SDS011;26021;45.640;11.302;2023-03-24T16:07:23;9.15;;;3.78;;
40314;SDS011;26021;45.640;11.302;2023-03-24T16:09:59;5.45;;;3.50;;
40314;SDS011;26021;45.640;11.302;2023-03-24T16:12:33;8.10;;;5.47;;
40314;SDS011;26021;45.640;11.302;2023-03-24T16:15:00;5.43;;;3.78;;
40314;SDS011;26021;45.640;11.302;2023-03-24T16:17:28;9.70;;;4.80;;
40314;SDS011;26021;45.640;11.302;2023-03-24T16:19:54;5.35;;;4.25;;
40314;SDS011;26021;45.640;11.302;2023-03-24T16:22:19;7.68;;;4.63;;
40314;SDS011;26021;45.640;11.302;2023-03-24T16:24:45;6.18;;;4.70;;
40314;SDS011;26021;45.640;11.302;2023-03-24T16:27:10;6.72;;;5.18;;
40314;SDS011;26021;45.640;11.302;2023-03-24T16:29:36;7.63;;;5.65;;
40314;SDS011;26021;45.640;11.302;2023-03-24T16:32:02;8.38;;;5.78;;
40314;SDS011;26021;45.640;11.302;2023-03-24T16:34:28;10.70;;;5.30;;
40314;SDS011;26021;45.640;11.302;2023-03-24T16:36:53;7.97;;;6.03;;
40314;SDS011;26021;45.640;11.302;2023-03-24T16:39:23;8.40;;;5.18;;
40314;SDS011;26021;45.640;11.302;2023-03-24T16:41:53;7.90;;;5.60;;
40314;SDS011;26021;45.640;11.302;2023-03-24T16:44:19;7.38;;;6.07;;
40314;SDS011;26021;45.640;11.302;2023-03-24T16:46:45;7.53;;;4.82;;
40314;SDS011;26021;45.640;11.302;2023-03-24T16:49:13;7.53;;;5.40;;
40314;SDS011;26021;45.640;11.302;2023-03-24T16:51:40;7.57;;;5.75;;
40314;SDS011;26021;45.640;11.302;2023-03-24T16:54:06;7.45;;;5.32;;
40314;SDS011;26021;45.640;11.302;2023-03-24T16:56:33;6.88;;;5.40;;
40314;SDS011;26021;45.640;11.302;2023-03-24T16:58:59;6.55;;;5.53;;
40314;SDS011;26021;45.640;11.302;2023-03-24T17:01:37;6.45;;;5.55;;
40314;SDS011;26021;45.640;11.302;2023-03-24T17:04:06;11.55;;;6.07;;
40314;SDS011;26021;45.640;11.302;2023-03-24T17:06:36;10.18;;;6.07;;
40314;SDS011;26021;45.640;11.302;2023-03-24T17:09:04;9.50;;;6.57;;
40314;SDS011;26021;45.640;11.302;2023-03-24T17:11:31;9.38;;;5.55;;
40314;SDS011;26021;45.640;11.302;2023-03-24T17:13:59;9.80;;;6.15;;
40314;SDS011;26021;45.640;11.302;2023-03-24T17:16:33;6.88;;;6.18;;
40314;SDS011;26021;45.640;11.302;2023-03-24T17:19:06;7.88;;;5.57;;
40314;SDS011;26021;45.640;11.302;2023-03-24T17:22:17;14.15;;;6.32;;
40314;SDS011;26021;45.640;11.302;2023-03-24T17:24:25;10.75;;;6.18;;
40314;SDS011;26021;45.640;11.302;2023-03-24T17:26:52;11.52;;;6.68;;
40314;SDS011;26021;45.640;11.302;2023-03-24T17:29:17;8.73;;;6.10;;
40314;SDS011;26021;45.640;11.302;2023-03-24T17:31:43;9.20;;;5.68;;
40314;SDS011;26021;45.640;11.302;2023-03-24T17:34:12;11.98;;;6.15;;
40314;SDS011;26021;45.640;11.302;2023-03-24T17:36:38;6.30;;;5.07;;
40314;SDS011;26021;45.640;11.302;2023-03-24T17:39:04;8.77;;;6.20;;
40314;SDS011;26021;45.640;11.302;2023-03-24T17:41:29;10.65;;;6.80;;